createdAt,value
2022-11-28T00:01:32.126Z,3.48
2022-11-28T00:03:59.849Z,3.46
2022-11-28T00:06:28.361Z,3.56
2022-11-28T00:08:59.143Z,3.51
2022-11-28T00:11:27.298Z,3.66
2022-11-28T00:13:55.576Z,3.57
2022-11-28T00:16:23.953Z,3.52
2022-11-28T00:18:54.559Z,3.55
2022-11-28T00:21:22.816Z,3.59
2022-11-28T00:23:51.093Z,3.65
2022-11-28T00:26:33.300Z,3.70
2022-11-28T00:29:03.474Z,3.87
2022-11-28T00:31:36.948Z,3.86
2022-11-28T00:34:04.413Z,3.90
2022-11-28T00:36:31.586Z,3.92
2022-11-28T00:38:58.885Z,3.98
2022-11-28T00:41:30.983Z,4.04
2022-11-28T00:43:58.352Z,4.10
2022-11-28T00:46:25.824Z,4.10
2022-11-28T00:48:53.795Z,4.14
2022-11-28T00:51:24.869Z,4.14
2022-11-28T00:53:55.531Z,4.19
2022-11-28T00:56:29.911Z,4.16
2022-11-28T00:58:57.959Z,4.08
2022-11-28T01:01:36.694Z,4.13
2022-11-28T01:04:10.337Z,4.24
2022-11-28T01:06:50.421Z,4.31
2022-11-28T01:09:23.521Z,4.32
2022-11-28T01:11:54.225Z,4.31
2022-11-28T01:14:24.722Z,4.29
2022-11-28T01:16:52.602Z,4.34
2022-11-28T01:19:21.189Z,4.36
2022-11-28T01:21:48.896Z,4.35
2022-11-28T01:24:16.773Z,4.37
2022-11-28T01:26:44.529Z,4.37
2022-11-28T01:29:11.970Z,4.26
2022-11-28T01:31:39.584Z,4.23
2022-11-28T01:34:06.888Z,4.20
2022-11-28T01:36:34.571Z,4.24
2022-11-28T01:39:01.774Z,4.22
2022-11-28T01:41:29.518Z,4.21
2022-11-28T01:44:12.190Z,4.23
2022-11-28T01:46:39.988Z,4.26
2022-11-28T01:49:28.224Z,4.27
2022-11-28T01:52:05.364Z,4.28
2022-11-28T01:54:35.860Z,4.22
2022-11-28T01:57:08.768Z,4.31
2022-11-28T01:59:58.873Z,4.39
2022-11-28T02:02:42.636Z,4.40
2022-11-28T02:05:09.882Z,4.30
2022-11-28T02:07:37.937Z,4.26
2022-11-28T02:10:09.605Z,4.27
2022-11-28T02:13:08.295Z,4.33
2022-11-28T02:16:10.042Z,4.42
2022-11-28T02:19:11.216Z,4.38
2022-11-28T02:22:14.980Z,4.38
2022-11-28T02:25:56.331Z,4.27
2022-11-28T02:29:35.870Z,4.26
2022-11-28T02:32:39.087Z,4.37
2022-11-28T02:35:30.340Z,4.38
2022-11-28T02:38:28.204Z,4.40
2022-11-28T02:41:22.270Z,4.43
2022-11-28T02:44:18.293Z,4.41
2022-11-28T02:47:39.725Z,4.41
2022-11-28T02:50:19.830Z,4.35
2022-11-28T02:52:56.922Z,4.39
2022-11-28T02:55:24.926Z,4.47
2022-11-28T02:57:54.860Z,4.43
2022-11-28T03:00:35.401Z,4.40
2022-11-28T03:03:36.445Z,4.47
2022-11-28T03:06:37.819Z,4.44
2022-11-28T03:09:47.094Z,4.39
2022-11-28T03:13:10.521Z,4.41
2022-11-28T03:15:53.681Z,4.40
2022-11-28T03:18:32.343Z,4.44
2022-11-28T03:21:30.043Z,4.43
2022-11-28T03:24:13.247Z,4.42
2022-11-28T03:27:33.037Z,4.38
2022-11-28T03:30:37.244Z,4.30
2022-11-28T03:34:38.111Z,4.28
2022-11-28T03:37:22.635Z,4.30
2022-11-28T03:39:59.525Z,4.32
2022-11-28T03:42:33.262Z,4.35
2022-11-28T03:45:14.046Z,4.37
2022-11-28T03:47:47.883Z,4.39
2022-11-28T03:50:24.571Z,4.38
2022-11-28T03:53:09.519Z,4.37
2022-11-28T03:56:00.228Z,4.39
2022-11-28T03:59:00.472Z,4.43
2022-11-28T04:01:48.333Z,4.47
2022-11-28T04:05:02.784Z,4.46
2022-11-28T04:07:52.715Z,4.47
2022-11-28T04:11:00.022Z,4.43
2022-11-28T04:13:46.128Z,4.39
2022-11-28T04:16:27.093Z,4.37
2022-11-28T04:19:42.821Z,4.37
2022-11-28T04:22:20.012Z,4.42
2022-11-28T04:24:58.136Z,4.40
2022-11-28T04:27:38.788Z,4.45
2022-11-28T04:30:08.821Z,4.45
2022-11-28T04:32:44.865Z,4.48
2022-11-28T04:35:36.127Z,4.41
2022-11-28T04:38:06.827Z,4.44
2022-11-28T04:40:44.981Z,4.41
2022-11-28T04:43:24.211Z,4.42
2022-11-28T04:46:13.479Z,4.42
2022-11-28T04:48:41.536Z,4.43
2022-11-28T04:51:24.268Z,4.41
2022-11-28T04:54:15.044Z,4.40
2022-11-28T04:57:16.037Z,4.38
2022-11-28T04:59:44.506Z,4.28
2022-11-28T05:02:13.465Z,4.28
2022-11-28T05:04:43.548Z,4.37
2022-11-28T05:07:11.528Z,4.38
2022-11-28T05:09:38.793Z,4.36
2022-11-28T05:12:07.049Z,4.34
2022-11-28T05:14:34.247Z,4.38
2022-11-28T05:17:01.473Z,4.40
2022-11-28T05:19:28.808Z,4.40
2022-11-28T05:21:55.969Z,4.36
2022-11-28T05:24:26.763Z,4.32
2022-11-28T05:26:56.813Z,4.31
2022-11-28T05:29:25.371Z,4.32
2022-11-28T05:31:52.672Z,4.34
2022-11-28T05:34:19.939Z,4.29
2022-11-28T05:36:47.150Z,4.22
2022-11-28T05:39:14.391Z,4.21
2022-11-28T05:41:41.590Z,4.12
2022-11-28T05:44:10.383Z,4.14
2022-11-28T05:46:37.605Z,4.12
2022-11-28T05:49:04.803Z,4.16
2022-11-28T05:51:32.141Z,4.10
2022-11-28T05:53:59.283Z,4.09
2022-11-28T05:56:26.448Z,4.11
2022-11-28T05:58:54.424Z,4.17
2022-11-28T06:01:29.253Z,4.15
2022-11-28T06:04:00.992Z,4.10
2022-11-28T06:06:32.947Z,4.08
2022-11-28T06:09:00.924Z,4.06
2022-11-28T06:11:30.382Z,4.06
2022-11-28T06:13:57.747Z,4.09
2022-11-28T06:16:31.263Z,4.16
2022-11-28T06:19:02.988Z,4.16
2022-11-28T06:21:31.511Z,4.10
2022-11-28T06:24:00.048Z,4.08
2022-11-28T06:26:28.993Z,4.02
2022-11-28T06:28:56.368Z,4.01
2022-11-28T06:31:28.558Z,4.01
2022-11-28T06:33:58.158Z,4.08
2022-11-28T06:36:26.386Z,4.01
2022-11-28T06:38:54.246Z,3.98
2022-11-28T06:41:22.890Z,3.99
2022-11-28T06:43:50.474Z,4.04
2022-11-28T06:46:21.718Z,4.03
2022-11-28T06:48:52.189Z,4.05
2022-11-28T06:51:21.221Z,4.06
2022-11-28T06:53:49.748Z,4.06
2022-11-28T06:56:20.568Z,4.12
2022-11-28T06:58:55.819Z,4.17
2022-11-28T07:01:26.558Z,4.17
2022-11-28T07:03:54.506Z,4.12
2022-11-28T07:06:24.502Z,4.10
2022-11-28T07:08:53.548Z,4.18
2022-11-28T07:11:31.115Z,4.20
2022-11-28T07:14:02.056Z,4.23
2022-11-28T07:16:32.758Z,4.31
2022-11-28T07:19:00.663Z,4.27
2022-11-28T07:21:29.505Z,4.32
2022-11-28T07:23:59.935Z,4.39
2022-11-28T07:26:27.700Z,4.44
2022-11-28T07:28:58.009Z,4.48
2022-11-28T07:31:27.922Z,4.57
2022-11-28T07:33:55.165Z,4.59
2022-11-28T07:36:28.404Z,4.63
2022-11-28T07:39:00.780Z,4.64
2022-11-28T07:41:28.823Z,4.67
2022-11-28T07:44:01.630Z,4.65
2022-11-28T07:46:31.094Z,4.67
2022-11-28T07:48:58.588Z,4.76
2022-11-28T07:51:31.899Z,4.79
2022-11-28T07:54:00.688Z,4.85
2022-11-28T07:57:04.705Z,4.93
2022-11-28T07:59:23.200Z,4.97
2022-11-28T08:01:50.389Z,4.98
2022-11-28T08:04:17.563Z,4.99
2022-11-28T08:06:45.032Z,4.96
2022-11-28T08:09:12.397Z,4.95
2022-11-28T08:11:40.712Z,5.01
2022-11-28T08:14:08.123Z,5.01
2022-11-28T08:16:36.783Z,5.06
2022-11-28T08:19:04.126Z,5.07
2022-11-28T08:21:34.330Z,5.13
2022-11-28T08:24:04.134Z,5.17
2022-11-28T08:26:33.253Z,5.23
2022-11-28T08:29:02.342Z,5.30
2022-11-28T08:31:36.901Z,5.39
2022-11-28T08:34:09.301Z,5.45
2022-11-28T08:36:37.132Z,5.48
2022-11-28T08:41:59.531Z,5.53
2022-11-28T08:44:30.252Z,5.60
2022-11-28T08:46:57.929Z,5.65
2022-11-28T08:49:25.134Z,5.73
2022-11-28T08:51:52.489Z,5.80
2022-11-28T08:54:20.785Z,5.83
2022-11-28T08:56:48.619Z,5.86
2022-11-28T08:59:15.972Z,5.86
2022-11-28T09:01:43.292Z,5.88
2022-11-28T09:04:10.656Z,5.90
2022-11-28T09:06:40.993Z,5.93
2022-11-28T09:09:09.070Z,5.92
2022-11-28T09:11:37.675Z,5.92
2022-11-28T09:14:05.072Z,5.94
2022-11-28T09:16:32.381Z,5.90
2022-11-28T09:18:59.851Z,5.87
2022-11-28T09:21:27.111Z,5.84
2022-11-28T09:23:56.346Z,5.88
2022-11-28T09:26:25.796Z,5.93
2022-11-28T09:28:54.632Z,5.97
2022-11-28T09:31:22.667Z,5.92
2022-11-28T09:33:50.027Z,5.82
2022-11-28T09:36:20.977Z,5.79
2022-11-28T09:38:48.786Z,5.77
2022-11-28T09:41:44.135Z,5.88
2022-11-28T09:44:50.607Z,5.90
2022-11-28T09:47:27.967Z,5.88
2022-11-28T09:50:34.594Z,5.92
2022-11-28T09:53:47.315Z,5.98
2022-11-28T09:56:21.653Z,6.02
2022-11-28T09:58:55.729Z,6.07
2022-11-28T10:01:52.484Z,6.10
2022-11-28T10:05:02.758Z,6.13
2022-11-28T10:08:25.914Z,6.13
2022-11-28T10:11:32.218Z,6.12
2022-11-28T10:15:02.189Z,6.10
2022-11-28T10:18:15.491Z,6.22
2022-11-28T10:20:53.613Z,6.23
2022-11-28T10:23:41.948Z,6.27
2022-11-28T10:26:27.590Z,6.28
2022-11-28T10:28:58.445Z,6.29
2022-11-28T10:31:43.044Z,6.23
2022-11-28T10:34:45.393Z,6.25
2022-11-28T10:37:34.006Z,6.27
2022-11-28T10:40:49.870Z,6.34
2022-11-28T10:43:41.490Z,6.49
2022-11-28T10:46:40.160Z,6.57
2022-11-28T10:50:05.142Z,6.78
2022-11-28T10:53:08.145Z,6.92
2022-11-28T10:56:33.537Z,7.09
2022-11-28T10:59:31.575Z,7.20
2022-11-28T11:02:00.934Z,7.27
2022-11-28T11:04:39.072Z,7.20
2022-11-28T11:07:22.649Z,7.28
2022-11-28T11:09:52.138Z,7.27
2022-11-28T11:12:31.562Z,7.29
2022-11-28T11:14:58.877Z,7.26
2022-11-28T11:17:37.649Z,7.25
2022-11-28T11:20:23.525Z,7.21
2022-11-28T11:23:20.017Z,7.33
2022-11-28T11:25:58.153Z,7.46
2022-11-28T11:28:54.169Z,7.42
2022-11-28T11:31:24.665Z,7.51
2022-11-28T11:34:19.305Z,7.38
2022-11-28T11:36:46.737Z,7.34
2022-11-28T11:39:13.685Z,7.41
2022-11-28T11:42:12.112Z,7.40
2022-11-28T11:44:39.375Z,7.39
2022-11-28T11:47:10.975Z,7.30
2022-11-28T11:49:49.978Z,7.34
2022-11-28T11:52:26.754Z,7.31
2022-11-28T11:54:58.239Z,7.29
2022-11-28T11:57:34.215Z,7.35
2022-11-28T12:00:21.036Z,7.33
2022-11-28T12:03:00.721Z,7.38
2022-11-28T12:06:06.487Z,7.42
2022-11-28T12:08:45.375Z,7.42
2022-11-28T12:11:35.655Z,7.32
2022-11-28T12:14:36.126Z,7.26
2022-11-28T12:21:14.844Z,7.20
2022-11-28T12:24:09.035Z,7.19
2022-11-28T12:26:51.309Z,7.19
2022-11-28T12:29:43.060Z,7.20
2022-11-28T12:32:40.311Z,7.23
2022-11-28T12:36:03.042Z,7.25
2022-11-28T12:39:47.142Z,7.28
2022-11-28T12:42:42.379Z,7.29
2022-11-28T12:45:37.365Z,7.29
2022-11-28T12:48:21.102Z,7.30
2022-11-28T12:51:22.093Z,7.26
2022-11-28T12:54:34.043Z,7.26
2022-11-28T12:57:24.730Z,7.30
2022-11-28T13:00:21.887Z,7.32
2022-11-28T13:03:26.629Z,7.30
2022-11-28T13:06:55.746Z,7.22
2022-11-28T13:09:37.904Z,7.25
2022-11-28T13:12:59.141Z,7.24
2022-11-28T13:16:13.869Z,7.20
2022-11-28T13:18:56.685Z,7.21
2022-11-28T13:22:16.373Z,7.20
2022-11-28T13:25:23.963Z,7.20
2022-11-28T13:28:32.046Z,7.14
2022-11-28T13:31:27.901Z,7.10
2022-11-28T13:33:57.426Z,7.09
2022-11-28T13:39:57.314Z,7.09
2022-11-28T13:43:03.859Z,7.10
2022-11-28T13:45:44.210Z,7.07
2022-11-28T13:49:05.995Z,7.10
2022-11-28T13:51:32.774Z,7.09
2022-11-28T13:54:21.234Z,7.06
2022-11-28T13:57:26.857Z,7.04
2022-11-28T14:00:02.243Z,7.01
2022-11-28T14:02:51.594Z,6.96
2022-11-28T14:05:39.407Z,6.96
2022-11-28T14:08:27.183Z,6.94
2022-11-28T14:11:50.411Z,6.89
2022-11-28T14:15:06.525Z,6.88
2022-11-28T14:17:47.638Z,6.83
2022-11-28T14:20:38.141Z,6.80
2022-11-28T14:23:46.554Z,6.79
2022-11-28T14:26:34.679Z,6.78
2022-11-28T14:29:07.589Z,6.74
2022-11-28T14:31:38.310Z,6.69
2022-11-28T14:34:48.635Z,6.65
2022-11-28T14:37:25.970Z,6.62
2022-11-28T14:39:56.168Z,6.57
2022-11-28T14:45:44.824Z,6.47
2022-11-28T14:48:29.122Z,6.38
2022-11-28T14:51:01.808Z,6.34
2022-11-28T14:53:51.840Z,6.32
2022-11-28T14:56:28.220Z,6.31
2022-11-28T14:59:01.756Z,6.20
2022-11-28T15:01:45.693Z,6.16
2022-11-28T15:04:31.005Z,6.09
2022-11-28T15:07:00.860Z,6.06
2022-11-28T15:10:10.422Z,6.05
2022-11-28T15:13:34.226Z,6.04
2022-11-28T15:16:06.536Z,6.01
2022-11-28T15:18:35.208Z,5.95
2022-11-28T15:21:12.432Z,5.92
2022-11-28T15:23:39.729Z,5.88
2022-11-28T15:26:27.016Z,5.87
2022-11-28T15:29:20.753Z,5.79
2022-11-28T15:31:52.429Z,5.74
2022-11-28T15:34:35.051Z,5.69
2022-11-28T15:37:16.136Z,5.66
2022-11-28T15:39:48.577Z,5.64
2022-11-28T15:42:31.479Z,5.60
2022-11-28T15:45:22.246Z,5.56
2022-11-28T15:47:52.765Z,5.52
2022-11-28T15:50:29.789Z,5.50
2022-11-28T15:53:15.797Z,5.45
2022-11-28T15:55:44.643Z,5.42
2022-11-28T15:58:31.531Z,5.37
2022-11-28T16:01:28.056Z,5.39
2022-11-28T16:04:05.717Z,5.36
2022-11-28T16:06:38.893Z,5.40
2022-11-28T16:09:18.335Z,5.38
2022-11-28T16:11:50.206Z,5.39
2022-11-28T16:14:44.796Z,5.33
2022-11-28T16:17:29.943Z,5.33
2022-11-28T16:19:58.240Z,5.33
2022-11-28T16:22:37.095Z,5.33
2022-11-28T16:25:24.282Z,5.33
2022-11-28T16:27:57.361Z,5.36
2022-11-28T16:30:41.468Z,5.32
2022-11-28T16:33:44.831Z,5.32
2022-11-28T16:36:37.098Z,5.24
2022-11-28T16:39:16.731Z,5.19
2022-11-28T16:42:05.160Z,5.18
2022-11-28T16:44:33.561Z,5.14
2022-11-28T16:47:01.536Z,5.14
2022-11-28T16:49:44.199Z,5.10
2022-11-28T16:52:26.257Z,5.07
2022-11-28T16:54:58.591Z,5.03
2022-11-28T16:57:45.712Z,5.06
2022-11-28T17:00:13.335Z,5.09
2022-11-28T17:02:40.488Z,5.05
2022-11-28T17:05:09.346Z,4.98
2022-11-28T17:07:36.611Z,5.00
2022-11-28T17:10:04.388Z,5.06
2022-11-28T17:12:39.061Z,5.13
2022-11-28T17:15:20.314Z,5.08
2022-11-28T17:17:47.657Z,5.06
2022-11-28T17:20:16.965Z,5.03
2022-11-28T17:22:47.036Z,4.99
2022-11-28T17:25:19.728Z,4.99
2022-11-28T17:27:48.119Z,5.01
2022-11-28T17:30:18.875Z,4.96
2022-11-28T17:32:51.931Z,5.01
2022-11-28T17:35:25.324Z,5.01
2022-11-28T17:37:52.576Z,4.95
2022-11-28T17:40:36.499Z,4.88
2022-11-28T17:43:04.985Z,4.80
2022-11-28T17:45:35.999Z,4.80
2022-11-28T17:48:03.336Z,4.80
2022-11-28T17:50:31.028Z,4.74
2022-11-28T17:52:58.152Z,4.71
2022-11-28T17:55:25.550Z,4.68
2022-11-28T17:57:54.050Z,4.68
2022-11-28T18:00:21.555Z,4.65
2022-11-28T18:02:48.718Z,4.61
2022-11-28T18:05:16.360Z,4.62
2022-11-28T18:07:43.546Z,4.62
2022-11-28T18:10:12.614Z,4.62
2022-11-28T18:12:39.826Z,4.65
2022-11-28T18:15:10.472Z,4.68
2022-11-28T18:17:38.422Z,4.62
2022-11-28T18:20:07.169Z,4.62
2022-11-28T18:22:34.465Z,4.63
2022-11-28T18:25:01.660Z,4.61
2022-11-28T18:27:29.578Z,4.57
2022-11-28T18:29:56.845Z,4.55
2022-11-28T18:32:24.048Z,4.50
2022-11-28T18:34:51.220Z,4.47
2022-11-28T18:37:18.525Z,4.48
2022-11-28T18:39:46.089Z,4.48
2022-11-28T18:42:13.591Z,4.44
2022-11-28T18:44:40.736Z,4.38
2022-11-28T18:47:07.909Z,4.31
2022-11-28T18:49:36.041Z,4.26
2022-11-28T18:52:03.735Z,4.24
2022-11-28T18:54:32.978Z,4.30
2022-11-28T18:57:01.074Z,4.32
2022-11-28T18:59:28.651Z,4.26
2022-11-28T19:01:56.152Z,4.19
2022-11-28T19:04:23.735Z,4.19
2022-11-28T19:06:51.354Z,4.21
2022-11-28T19:09:22.205Z,4.18
2022-11-28T19:11:49.507Z,4.19
2022-11-28T19:14:21.116Z,4.21
2022-11-28T19:16:49.402Z,4.16
2022-11-28T19:19:17.771Z,4.18
2022-11-28T19:21:45.897Z,4.22
2022-11-28T19:24:13.676Z,4.26
2022-11-28T19:26:41.535Z,4.19
2022-11-28T19:29:09.743Z,4.24
2022-11-28T19:31:39.003Z,4.29
2022-11-28T19:34:18.513Z,4.30
2022-11-28T19:36:51.859Z,4.32
2022-11-28T19:39:25.357Z,4.31
2022-11-28T19:41:55.359Z,4.33
2022-11-28T19:44:24.615Z,4.34
2022-11-28T19:46:53.404Z,4.36
2022-11-28T19:49:24.425Z,4.37
2022-11-28T19:51:52.326Z,4.33
2022-11-28T19:54:21.119Z,4.31
2022-11-28T19:56:50.180Z,4.29
2022-11-28T19:59:19.242Z,4.32
2022-11-28T20:01:48.910Z,4.34
2022-11-28T20:04:16.724Z,4.35
2022-11-28T20:06:43.946Z,4.35
2022-11-28T20:09:13.794Z,4.36
2022-11-28T20:11:44.912Z,4.35
2022-11-28T20:14:18.181Z,4.32
2022-11-28T20:16:46.935Z,4.32
2022-11-28T20:19:16.170Z,4.26
2022-11-28T20:21:46.308Z,4.27
2022-11-28T20:24:15.440Z,4.28
2022-11-28T20:26:44.592Z,4.28
2022-11-28T20:29:16.365Z,4.23
2022-11-28T20:31:47.334Z,4.21
2022-11-28T20:34:18.588Z,4.26
2022-11-28T20:36:52.889Z,4.24
2022-11-28T20:39:20.396Z,4.24
2022-11-28T20:41:47.716Z,4.20
2022-11-28T20:44:15.098Z,4.19
2022-11-28T20:46:44.937Z,4.20
2022-11-28T20:49:17.381Z,4.20
2022-11-28T20:51:44.949Z,4.08
2022-11-28T20:54:13.776Z,4.12
2022-11-28T20:57:12.713Z,4.14
2022-11-28T20:59:30.340Z,4.18
2022-11-28T21:01:57.617Z,4.21
2022-11-28T21:04:24.851Z,4.23
2022-11-28T21:06:52.035Z,4.21
2022-11-28T21:09:20.897Z,4.22
2022-11-28T21:11:58.172Z,4.22
2022-11-28T21:14:28.720Z,4.16
2022-11-28T21:16:58.053Z,4.08
2022-11-28T21:19:26.319Z,4.06
2022-11-28T21:21:53.902Z,4.11
2022-11-28T21:24:21.533Z,4.11
2022-11-28T21:26:53.490Z,4.07
2022-11-28T21:29:24.578Z,4.05
2022-11-28T21:31:54.026Z,4.02
2022-11-28T21:34:22.414Z,4.04
2022-11-28T21:36:49.741Z,4.11
2022-11-28T21:39:20.339Z,4.13
2022-11-28T21:41:48.155Z,4.21
2022-11-28T21:44:15.386Z,4.29
2022-11-28T21:46:43.121Z,4.33
2022-11-28T21:49:10.418Z,4.32
2022-11-28T21:51:41.433Z,4.36
2022-11-28T21:54:11.682Z,4.39
2022-11-28T21:56:39.222Z,4.39
2022-11-28T21:59:06.831Z,4.38
2022-11-28T22:01:34.708Z,4.32
2022-11-28T22:04:03.147Z,4.23
2022-11-28T22:06:32.195Z,4.21
2022-11-28T22:09:07.323Z,4.19
2022-11-28T22:11:36.782Z,4.20
2022-11-28T22:14:04.392Z,4.14
2022-11-28T22:16:31.730Z,4.12
2022-11-28T22:19:00.988Z,4.09
2022-11-28T22:24:16.297Z,4.09
2022-11-28T22:26:44.512Z,4.18
2022-11-28T22:29:13.960Z,4.17
2022-11-28T22:31:41.562Z,4.15
2022-11-28T22:34:10.058Z,4.20
2022-11-28T22:36:38.558Z,4.19
2022-11-28T22:39:06.287Z,4.19
2022-11-28T22:41:33.947Z,4.24
2022-11-28T22:44:03.981Z,4.31
2022-11-28T22:46:32.478Z,4.28
2022-11-28T22:49:02.132Z,4.22
2022-11-28T22:51:31.226Z,4.20
2022-11-28T22:54:02.069Z,4.23
2022-11-28T22:56:34.809Z,4.29
2022-11-28T22:59:04.717Z,4.31
2022-11-28T23:01:34.103Z,4.35
2022-11-28T23:04:01.318Z,4.41
2022-11-28T23:06:34.755Z,4.35
2022-11-28T23:09:08.211Z,4.39
2022-11-28T23:11:38.840Z,4.42
2022-11-28T23:14:06.890Z,4.45
2022-11-28T23:16:39.040Z,4.48
2022-11-28T23:19:19.085Z,4.45
2022-11-28T23:21:49.840Z,4.43
2022-11-28T23:24:22.297Z,4.40
2022-11-28T23:26:51.217Z,4.38
2022-11-28T23:29:19.453Z,4.31
2022-11-28T23:31:47.768Z,4.36
2022-11-28T23:34:15.979Z,4.41
2022-11-28T23:36:46.817Z,4.40
2022-11-28T23:39:19.415Z,4.33
2022-11-28T23:41:47.900Z,4.31
2022-11-28T23:44:19.788Z,4.36
2022-11-28T23:46:48.971Z,4.33
2022-11-28T23:49:17.012Z,4.28
2022-11-28T23:51:44.356Z,4.26
2022-11-28T23:54:12.411Z,4.24
2022-11-28T23:56:42.960Z,4.21
2022-11-28T23:59:12.319Z,4.22
